createdAt,value
2023-03-19T00:00:49.502Z,11.03
2023-03-19T00:01:49.556Z,11.10
2023-03-19T00:02:49.672Z,11.07
2023-03-19T00:03:49.672Z,11.07
2023-03-19T00:04:49.594Z,11.11
2023-03-19T00:05:49.616Z,11.14
2023-03-19T00:06:49.639Z,11.14
2023-03-19T00:07:49.664Z,11.14
2023-03-19T00:08:49.690Z,11.09
2023-03-19T00:09:49.715Z,11.17
2023-03-19T00:10:49.734Z,11.09
2023-03-19T00:11:49.759Z,11.03
2023-03-19T00:12:49.775Z,11.07
2023-03-19T00:13:49.799Z,11.02
2023-03-19T00:14:49.828Z,10.94
2023-03-19T00:15:49.852Z,10.96
2023-03-19T00:16:49.920Z,11.03
2023-03-19T00:17:49.893Z,10.97
2023-03-19T00:18:49.920Z,11.04
2023-03-19T00:19:49.938Z,11.09
2023-03-19T00:20:49.957Z,11.06
2023-03-19T00:21:49.988Z,11.07
2023-03-19T00:22:50.013Z,11.09
2023-03-19T00:23:50.041Z,10.96
2023-03-19T00:24:50.061Z,10.89
2023-03-19T00:25:50.072Z,10.88
2023-03-19T00:26:50.091Z,10.96
2023-03-19T00:27:50.124Z,10.96
2023-03-19T00:28:50.132Z,10.91
2023-03-19T00:29:50.159Z,10.84
2023-03-19T00:30:50.206Z,10.91
2023-03-19T00:31:50.213Z,10.81
2023-03-19T00:32:50.259Z,10.86
2023-03-19T00:33:50.256Z,10.85
2023-03-19T00:34:50.270Z,10.74
2023-03-19T00:35:50.321Z,10.74
2023-03-19T00:36:50.319Z,10.74
2023-03-19T00:37:50.347Z,10.78
2023-03-19T00:38:50.384Z,10.76
2023-03-19T00:39:50.394Z,10.74
2023-03-19T00:40:50.412Z,10.64
2023-03-19T00:41:50.607Z,10.68
2023-03-19T00:42:50.455Z,10.61
2023-03-19T00:43:50.474Z,10.63
2023-03-19T00:44:50.493Z,10.53
2023-03-19T00:45:50.553Z,10.52
2023-03-19T00:46:50.543Z,10.52
2023-03-19T00:47:50.563Z,10.51
2023-03-19T00:48:50.583Z,10.59
2023-03-19T00:49:50.609Z,10.64
2023-03-19T00:50:50.632Z,10.61
2023-03-19T00:51:50.652Z,10.59
2023-03-19T00:52:50.671Z,10.68
2023-03-19T00:53:50.693Z,10.63
2023-03-19T00:54:50.717Z,10.59
2023-03-19T00:55:50.756Z,10.59
2023-03-19T00:56:50.762Z,10.67
2023-03-19T00:57:50.782Z,10.60
2023-03-19T00:58:50.803Z,10.61
2023-03-19T00:59:50.926Z,10.59
2023-03-19T01:00:50.846Z,10.67
2023-03-19T01:01:50.868Z,10.64
2023-03-19T01:02:50.921Z,10.61
2023-03-19T01:03:50.911Z,10.67
2023-03-19T01:04:50.934Z,10.67
2023-03-19T01:05:50.959Z,10.70
2023-03-19T01:06:50.978Z,10.66
2023-03-19T01:07:51.011Z,10.68
2023-03-19T01:08:51.021Z,10.67
2023-03-19T01:09:51.037Z,10.63
2023-03-19T01:10:51.067Z,10.67
2023-03-19T01:11:51.087Z,10.71
2023-03-19T01:12:51.111Z,10.71
2023-03-19T01:13:51.139Z,10.76
2023-03-19T01:14:51.153Z,10.73
2023-03-19T01:15:51.176Z,10.73
2023-03-19T01:16:51.212Z,10.86
2023-03-19T01:17:51.235Z,10.79
2023-03-19T01:18:51.245Z,10.84
2023-03-19T01:19:51.260Z,10.82
2023-03-19T01:20:51.286Z,10.84
2023-03-19T01:21:51.313Z,10.84
2023-03-19T01:22:51.333Z,10.76
2023-03-19T01:23:51.351Z,10.70
2023-03-19T01:24:51.381Z,10.73
2023-03-19T01:25:51.398Z,10.67
2023-03-19T01:26:51.422Z,10.68
2023-03-19T01:27:51.448Z,10.53
2023-03-19T01:28:51.461Z,10.63
2023-03-19T01:29:51.491Z,10.63
2023-03-19T01:30:51.534Z,10.60
2023-03-19T01:31:51.537Z,10.63
2023-03-19T01:32:51.608Z,10.55
2023-03-19T01:33:51.572Z,10.63
2023-03-19T01:34:51.598Z,10.60
2023-03-19T01:35:51.645Z,10.52
2023-03-19T01:36:51.640Z,10.53
2023-03-19T01:37:51.664Z,10.63
2023-03-19T01:38:51.680Z,10.53
2023-03-19T01:39:51.708Z,10.53
2023-03-19T01:40:51.728Z,10.55
2023-03-19T01:41:51.754Z,10.61
2023-03-19T01:42:51.778Z,10.56
2023-03-19T01:43:51.801Z,10.53
2023-03-19T01:44:51.818Z,10.52
2023-03-19T01:45:51.851Z,10.52
2023-03-19T01:46:51.914Z,10.53
2023-03-19T01:47:51.883Z,10.60
2023-03-19T01:48:51.950Z,10.56
2023-03-19T01:49:51.935Z,10.56
2023-03-19T01:50:51.950Z,10.55
2023-03-19T01:51:51.979Z,10.52
2023-03-19T01:52:52.012Z,10.48
2023-03-19T01:53:52.029Z,10.53
2023-03-19T01:54:52.037Z,10.55
2023-03-19T01:55:52.059Z,10.55
2023-03-19T01:56:52.088Z,10.48
2023-03-19T01:57:52.101Z,10.51
2023-03-19T01:58:52.134Z,10.60
2023-03-19T01:59:52.152Z,10.64
2023-03-19T02:00:52.166Z,10.66
2023-03-19T02:01:52.252Z,10.61
2023-03-19T02:02:52.213Z,10.53
2023-03-19T02:03:52.240Z,10.55
2023-03-19T02:04:52.350Z,10.56
2023-03-19T02:05:52.282Z,10.64
2023-03-19T02:06:52.298Z,10.64
2023-03-19T02:07:52.329Z,10.61
2023-03-19T02:08:52.369Z,10.63
2023-03-19T02:09:52.374Z,10.70
2023-03-19T02:10:52.390Z,10.63
2023-03-19T02:11:52.412Z,10.71
2023-03-19T02:12:52.495Z,10.66
2023-03-19T02:13:52.459Z,10.60
2023-03-19T02:14:52.482Z,10.60
2023-03-19T02:15:52.537Z,10.55
2023-03-19T02:16:52.523Z,10.66
2023-03-19T02:17:52.546Z,10.60
2023-03-19T02:18:52.581Z,10.66
2023-03-19T02:19:52.591Z,10.56
2023-03-19T02:20:52.612Z,10.55
2023-03-19T02:21:52.633Z,10.53
2023-03-19T02:22:52.662Z,10.44
2023-03-19T02:23:52.704Z,10.45
2023-03-19T02:24:52.701Z,10.42
2023-03-19T02:25:52.731Z,10.41
2023-03-19T02:26:52.746Z,10.29
2023-03-19T02:27:52.780Z,10.30
2023-03-19T02:28:52.823Z,10.30
2023-03-19T02:29:52.810Z,10.32
2023-03-19T02:30:52.836Z,10.34
2023-03-19T02:31:52.856Z,10.32
2023-03-19T02:32:53.023Z,10.30
2023-03-19T02:33:52.899Z,10.23
2023-03-19T02:34:52.927Z,10.22
2023-03-19T02:35:53.052Z,10.22
2023-03-19T02:36:52.973Z,10.15
2023-03-19T02:37:52.988Z,10.17
2023-03-19T02:38:53.008Z,10.25
2023-03-19T02:39:53.030Z,10.05
2023-03-19T02:40:53.051Z,10.04
2023-03-19T02:41:53.075Z,10.02
2023-03-19T02:42:53.096Z,10.01
2023-03-19T02:43:53.117Z,9.97
2023-03-19T02:44:53.139Z,9.96
2023-03-19T02:45:53.161Z,9.91
2023-03-19T02:46:53.354Z,9.97
2023-03-19T02:47:53.203Z,9.93
2023-03-19T02:48:53.229Z,9.93
2023-03-19T02:49:53.257Z,9.91
2023-03-19T02:50:53.272Z,9.86
2023-03-19T02:51:53.296Z,9.81
2023-03-19T02:52:53.313Z,9.81
2023-03-19T02:53:53.335Z,9.81
2023-03-19T02:54:53.355Z,9.72
2023-03-19T02:55:53.381Z,9.78
2023-03-19T02:56:53.432Z,9.78
2023-03-19T02:57:53.421Z,9.78
2023-03-19T02:58:53.444Z,9.81
2023-03-19T02:59:53.482Z,9.90
2023-03-19T03:00:53.525Z,9.94
2023-03-19T03:01:53.524Z,9.94
2023-03-19T03:02:53.536Z,9.94
2023-03-19T03:03:53.560Z,9.96
2023-03-19T03:04:53.575Z,9.96
2023-03-19T03:05:53.604Z,9.84
2023-03-19T03:06:53.622Z,9.83
2023-03-19T03:07:53.644Z,9.83
2023-03-19T03:08:53.666Z,9.83
2023-03-19T03:09:53.688Z,9.78
2023-03-19T03:10:53.712Z,9.74
2023-03-19T03:11:53.734Z,9.72
2023-03-19T03:12:53.762Z,9.69
2023-03-19T03:13:53.787Z,9.71
2023-03-19T03:14:53.798Z,9.75
2023-03-19T03:15:53.831Z,9.74
2023-03-19T03:16:53.845Z,9.81
2023-03-19T03:17:53.868Z,9.81
2023-03-19T03:18:53.885Z,9.76
2023-03-19T03:19:53.910Z,9.78
2023-03-19T03:20:53.926Z,9.72
2023-03-19T03:21:53.957Z,9.71
2023-03-19T03:22:53.970Z,9.65
2023-03-19T03:23:54.000Z,9.69
2023-03-19T03:24:54.017Z,9.72
2023-03-19T03:25:54.048Z,9.74
2023-03-19T03:26:54.074Z,9.66
2023-03-19T03:27:54.084Z,9.68
2023-03-19T03:28:54.100Z,9.71
2023-03-19T03:29:54.124Z,9.69
2023-03-19T03:30:54.146Z,9.61
2023-03-19T03:31:54.302Z,9.61
2023-03-19T03:32:54.228Z,9.69
2023-03-19T03:33:54.220Z,9.66
2023-03-19T03:34:54.233Z,9.64
2023-03-19T03:35:54.282Z,9.65
2023-03-19T03:36:54.281Z,9.65
2023-03-19T03:37:54.297Z,9.65
2023-03-19T03:38:54.322Z,9.61
2023-03-19T03:39:54.340Z,9.61
2023-03-19T03:40:54.365Z,9.50
2023-03-19T03:41:54.382Z,9.54
2023-03-19T03:42:54.405Z,9.51
2023-03-19T03:43:54.431Z,9.48
2023-03-19T03:44:54.445Z,9.51
2023-03-19T03:45:54.525Z,9.43
2023-03-19T03:46:54.492Z,9.46
2023-03-19T03:47:54.519Z,9.46
2023-03-19T03:48:54.530Z,9.42
2023-03-19T03:49:54.556Z,9.42
2023-03-19T03:50:54.580Z,9.36
2023-03-19T03:51:54.603Z,9.36
2023-03-19T03:52:54.621Z,9.42
2023-03-19T03:53:54.641Z,9.43
2023-03-19T03:54:54.669Z,9.46
2023-03-19T03:55:54.689Z,9.43
2023-03-19T03:56:54.708Z,9.42
2023-03-19T03:57:54.726Z,9.40
2023-03-19T03:58:54.750Z,9.40
2023-03-19T03:59:54.786Z,9.35
2023-03-19T04:00:54.798Z,9.33
2023-03-19T04:01:54.827Z,9.31
2023-03-19T04:02:54.932Z,9.23
2023-03-19T04:03:54.852Z,9.24
2023-03-19T04:04:54.883Z,9.23
2023-03-19T04:05:54.900Z,9.23
2023-03-19T04:06:54.919Z,9.21
2023-03-19T04:07:54.940Z,9.29
2023-03-19T04:08:54.963Z,9.21
2023-03-19T04:09:54.984Z,9.21
2023-03-19T04:10:55.003Z,9.31
2023-03-19T04:11:55.028Z,9.35
2023-03-19T04:12:55.051Z,9.29
2023-03-19T04:13:55.067Z,9.31
2023-03-19T04:14:55.092Z,9.39
2023-03-19T04:15:55.109Z,9.36
2023-03-19T04:16:55.166Z,9.38
2023-03-19T04:17:55.154Z,9.46
2023-03-19T04:18:55.173Z,9.33
2023-03-19T04:19:55.194Z,9.21
2023-03-19T04:20:55.217Z,9.23
2023-03-19T04:21:55.237Z,9.23
2023-03-19T04:22:55.259Z,9.20
2023-03-19T04:23:55.281Z,9.13
2023-03-19T04:24:55.317Z,9.15
2023-03-19T04:25:55.319Z,9.15
2023-03-19T04:26:55.353Z,9.10
2023-03-19T04:27:55.367Z,9.14
2023-03-19T04:28:55.384Z,9.13
2023-03-19T04:29:55.415Z,9.08
2023-03-19T04:30:55.463Z,9.08
2023-03-19T04:31:55.447Z,9.05
2023-03-19T04:32:55.509Z,9.04
2023-03-19T04:33:55.489Z,9.02
2023-03-19T04:34:55.516Z,9.05
2023-03-19T04:35:55.584Z,9.05
2023-03-19T04:36:55.557Z,9.11
2023-03-19T04:37:55.577Z,9.08
2023-03-19T04:38:55.597Z,9.13
2023-03-19T04:39:55.620Z,9.08
2023-03-19T04:40:55.640Z,9.08
2023-03-19T04:41:55.664Z,9.08
2023-03-19T04:42:55.700Z,9.08
2023-03-19T04:43:55.724Z,9.04
2023-03-19T04:44:55.726Z,9.02
2023-03-19T04:45:55.787Z,9.04
2023-03-19T04:46:55.764Z,9.02
2023-03-19T04:47:55.782Z,8.98
2023-03-19T04:48:55.808Z,9.01
2023-03-19T04:49:55.829Z,8.99
2023-03-19T04:50:55.848Z,8.99
2023-03-19T04:51:55.875Z,9.02
2023-03-19T04:52:55.891Z,9.01
2023-03-19T04:53:55.923Z,9.08
2023-03-19T04:54:55.937Z,9.10
2023-03-19T04:55:55.958Z,9.11
2023-03-19T04:56:55.977Z,9.15
2023-03-19T04:57:56.036Z,9.13
2023-03-19T04:58:56.022Z,9.13
2023-03-19T04:59:56.047Z,9.17
2023-03-19T05:00:56.062Z,9.10
2023-03-19T05:01:56.097Z,9.08
2023-03-19T05:02:56.108Z,9.01
2023-03-19T05:03:56.205Z,9.10
2023-03-19T05:04:56.158Z,9.08
2023-03-19T05:05:56.167Z,9.05
2023-03-19T05:06:56.191Z,9.01
2023-03-19T05:07:56.226Z,9.01
2023-03-19T05:08:56.233Z,8.95
2023-03-19T05:09:56.259Z,9.01
2023-03-19T05:10:56.276Z,9.04
2023-03-19T05:11:56.297Z,9.08
2023-03-19T05:12:56.321Z,9.02
2023-03-19T05:13:56.346Z,9.08
2023-03-19T05:14:56.354Z,8.98
2023-03-19T05:15:56.394Z,9.02
2023-03-19T05:16:56.413Z,9.01
2023-03-19T05:17:56.427Z,8.95
2023-03-19T05:18:56.445Z,8.94
2023-03-19T05:19:56.475Z,8.99
2023-03-19T05:20:56.490Z,8.86
2023-03-19T05:21:56.532Z,8.87
2023-03-19T05:22:56.533Z,8.86
2023-03-19T05:23:56.554Z,8.81
2023-03-19T05:24:56.569Z,8.77
2023-03-19T05:25:56.594Z,8.76
2023-03-19T05:26:56.614Z,8.68
2023-03-19T05:27:56.640Z,8.76
2023-03-19T05:28:56.661Z,8.81
2023-03-19T05:29:56.681Z,8.68
2023-03-19T05:30:56.785Z,8.62
2023-03-19T05:31:56.725Z,8.79
2023-03-19T05:32:56.822Z,8.63
2023-03-19T05:33:56.765Z,8.71
2023-03-19T05:34:56.795Z,8.66
2023-03-19T05:35:58.346Z,8.66
2023-03-19T05:36:56.820Z,8.66
2023-03-19T05:37:56.862Z,8.73
2023-03-19T05:38:56.868Z,8.73
2023-03-19T05:39:56.901Z,8.68
2023-03-19T05:40:56.913Z,8.68
2023-03-19T05:41:56.945Z,8.76
2023-03-19T05:42:56.952Z,8.74
2023-03-19T05:43:56.974Z,8.62
2023-03-19T05:44:56.996Z,8.79
2023-03-19T05:45:57.018Z,8.65
2023-03-19T05:46:57.039Z,8.79
2023-03-19T05:47:57.075Z,8.80
2023-03-19T05:48:57.080Z,8.77
2023-03-19T05:49:57.104Z,8.84
2023-03-19T05:50:57.138Z,8.80
2023-03-19T05:51:57.150Z,8.83
2023-03-19T05:52:57.163Z,8.94
2023-03-19T05:53:57.184Z,8.91
2023-03-19T05:54:57.210Z,9.02
2023-03-19T05:55:57.234Z,8.94
2023-03-19T05:56:57.256Z,9.02
2023-03-19T05:57:57.303Z,9.01
2023-03-19T05:58:57.289Z,9.02
2023-03-19T05:59:57.321Z,9.08
2023-03-19T06:00:57.337Z,9.14
2023-03-19T06:01:57.354Z,9.14
2023-03-19T06:02:57.393Z,9.24
2023-03-19T06:03:57.495Z,9.23
2023-03-19T06:04:57.415Z,9.26
2023-03-19T06:05:57.437Z,9.33
2023-03-19T06:06:57.550Z,9.39
2023-03-19T06:07:57.484Z,9.40
2023-03-19T06:08:57.514Z,9.50
2023-03-19T06:09:57.531Z,9.48
2023-03-19T06:10:57.548Z,9.56
2023-03-19T06:11:57.592Z,9.48
2023-03-19T06:12:57.594Z,9.51
2023-03-19T06:13:57.621Z,9.51
2023-03-19T06:14:57.633Z,9.51
2023-03-19T06:15:57.670Z,9.50
2023-03-19T06:16:57.674Z,9.51
2023-03-19T06:17:57.697Z,9.65
2023-03-19T06:18:57.725Z,9.48
2023-03-19T06:19:57.738Z,9.65
2023-03-19T06:20:57.760Z,9.60
2023-03-19T06:21:57.784Z,9.61
2023-03-19T06:22:57.807Z,9.69
2023-03-19T06:23:57.819Z,9.72
2023-03-19T06:24:57.844Z,9.86
2023-03-19T06:25:57.869Z,9.84
2023-03-19T06:26:57.893Z,9.78
2023-03-19T06:27:57.914Z,9.79
2023-03-19T06:28:57.934Z,9.83
2023-03-19T06:29:57.956Z,9.81
2023-03-19T06:30:58.005Z,9.87
2023-03-19T06:31:58.299Z,9.86
2023-03-19T06:32:58.038Z,9.99
2023-03-19T06:33:58.052Z,9.96
2023-03-19T06:34:58.068Z,9.86
2023-03-19T06:35:58.120Z,9.93
2023-03-19T06:36:58.147Z,9.96
2023-03-19T06:37:58.137Z,9.99
2023-03-19T06:38:58.156Z,9.94
2023-03-19T06:39:58.182Z,9.94
2023-03-19T06:40:58.198Z,10.08
2023-03-19T06:41:58.237Z,10.02
2023-03-19T06:42:58.291Z,10.09
2023-03-19T06:43:58.268Z,10.09
2023-03-19T06:44:58.289Z,10.12
2023-03-19T06:45:58.365Z,10.18
2023-03-19T06:46:58.335Z,10.25
2023-03-19T06:47:58.356Z,10.27
2023-03-19T06:48:58.378Z,10.27
2023-03-19T06:49:58.400Z,10.32
2023-03-19T06:50:58.423Z,10.29
2023-03-19T06:51:58.450Z,10.44
2023-03-19T06:52:58.471Z,10.38
2023-03-19T06:53:58.485Z,10.41
2023-03-19T06:54:58.511Z,10.51
2023-03-19T06:55:58.535Z,10.55
2023-03-19T06:56:58.569Z,10.56
2023-03-19T06:57:58.579Z,10.59
2023-03-19T06:58:58.601Z,10.55
2023-03-19T06:59:58.626Z,10.66
2023-03-19T07:00:58.681Z,10.61
2023-03-19T07:01:58.675Z,10.61
2023-03-19T07:02:58.691Z,10.66
2023-03-19T07:03:58.756Z,10.71
2023-03-19T07:04:58.742Z,10.78
2023-03-19T07:05:58.755Z,10.74
2023-03-19T07:06:58.777Z,10.67
2023-03-19T07:07:58.804Z,10.63
2023-03-19T07:08:58.824Z,10.68
2023-03-19T07:09:58.864Z,10.60
2023-03-19T07:10:58.867Z,10.70
2023-03-19T07:11:58.893Z,10.71
2023-03-19T07:12:58.916Z,10.81
2023-03-19T07:13:58.935Z,10.78
2023-03-19T07:14:58.958Z,10.81
2023-03-19T07:15:58.980Z,10.86
2023-03-19T07:16:59.015Z,10.92
2023-03-19T07:17:59.020Z,11.07
2023-03-19T07:18:59.049Z,11.15
2023-03-19T07:19:59.078Z,11.24
2023-03-19T07:20:59.093Z,11.25
2023-03-19T07:21:59.112Z,11.33
2023-03-19T07:22:59.134Z,11.40
2023-03-19T07:23:59.163Z,11.36
2023-03-19T07:24:59.188Z,11.46
2023-03-19T07:25:59.204Z,11.40
2023-03-19T07:26:59.229Z,11.49
2023-03-19T07:27:59.250Z,11.51
2023-03-19T07:28:59.274Z,11.55
2023-03-19T07:29:59.297Z,11.60
2023-03-19T07:30:59.320Z,11.67
2023-03-19T07:31:59.441Z,11.72
2023-03-19T07:32:59.380Z,11.75
2023-03-19T07:33:59.382Z,11.83
2023-03-19T07:34:59.412Z,11.98
2023-03-19T07:35:59.479Z,12.10
2023-03-19T07:36:59.459Z,12.14
2023-03-19T07:37:59.480Z,12.27
2023-03-19T07:38:59.502Z,12.28
2023-03-19T07:39:59.526Z,12.32
2023-03-19T07:41:02.800Z,12.45
2023-03-19T07:41:59.569Z,12.67
2023-03-19T07:42:59.595Z,12.74
2023-03-19T07:43:59.614Z,12.96
2023-03-19T07:44:59.645Z,12.89
2023-03-19T07:45:59.702Z,13.01
2023-03-19T07:46:59.686Z,13.14
2023-03-19T07:47:59.713Z,13.32
2023-03-19T07:48:59.826Z,13.29
2023-03-19T07:49:59.760Z,13.52
2023-03-19T07:50:59.784Z,13.55
2023-03-19T07:51:59.821Z,13.82
2023-03-19T07:52:59.890Z,13.75
2023-03-19T07:53:59.891Z,13.87
2023-03-19T07:54:59.879Z,13.92
2023-03-19T07:55:59.972Z,13.92
2023-03-19T07:56:59.925Z,13.92
2023-03-19T07:57:59.951Z,14.00
2023-03-19T07:58:59.997Z,13.99
2023-03-19T08:00:00.003Z,14.14
2023-03-19T08:01:00.356Z,14.06
2023-03-19T08:02:00.100Z,14.02
2023-03-19T08:03:00.185Z,14.12
2023-03-19T08:04:00.110Z,14.02
2023-03-19T08:05:00.150Z,14.02
2023-03-19T08:06:00.166Z,14.03
2023-03-19T08:07:00.165Z,14.15
2023-03-19T08:08:00.187Z,14.20
2023-03-19T08:09:00.220Z,14.33
2023-03-19T08:10:00.237Z,14.37
2023-03-19T08:11:00.263Z,14.42
2023-03-19T08:12:00.317Z,14.51
2023-03-19T08:13:00.311Z,14.61
2023-03-19T08:14:00.333Z,14.72
2023-03-19T08:15:00.369Z,14.89
2023-03-19T08:16:00.389Z,15.03
2023-03-19T08:17:00.419Z,15.17
2023-03-19T08:18:00.433Z,15.25
2023-03-19T08:19:00.461Z,15.29
2023-03-19T08:20:00.490Z,15.38
2023-03-19T08:21:00.515Z,15.31
2023-03-19T08:22:00.550Z,15.46
2023-03-19T08:23:00.563Z,15.36
2023-03-19T08:24:01.342Z,15.41
2023-03-19T08:25:00.616Z,15.47
2023-03-19T08:26:00.635Z,15.54
2023-03-19T08:27:00.659Z,15.59
2023-03-19T08:28:01.078Z,15.76
2023-03-19T08:29:00.708Z,15.78
2023-03-19T08:30:00.753Z,15.96
2023-03-19T08:31:00.785Z,16.01
2023-03-19T08:32:00.782Z,16.09
2023-03-19T08:33:00.857Z,16.09
2023-03-19T08:34:00.835Z,16.15
2023-03-19T08:35:00.863Z,16.20
2023-03-19T08:36:00.914Z,16.33
2023-03-19T08:37:00.924Z,16.45
2023-03-19T08:38:00.937Z,16.42
2023-03-19T08:39:00.970Z,16.49
2023-03-19T08:40:00.989Z,16.68
2023-03-19T08:41:01.016Z,16.76
2023-03-19T08:42:01.290Z,16.83
2023-03-19T08:43:01.067Z,16.91
2023-03-19T08:44:01.096Z,16.85
2023-03-19T08:45:01.121Z,16.98
2023-03-19T08:46:01.156Z,17.01
2023-03-19T08:47:01.175Z,17.08
2023-03-19T08:48:01.215Z,17.14
2023-03-19T08:49:01.235Z,17.12
2023-03-19T08:50:01.266Z,17.21
2023-03-19T08:51:01.283Z,17.04
2023-03-19T08:52:01.309Z,17.07
2023-03-19T08:53:01.353Z,16.97
2023-03-19T08:54:01.360Z,16.91
2023-03-19T08:55:01.474Z,16.81
2023-03-19T08:56:01.412Z,16.66
2023-03-19T08:57:01.447Z,16.53
2023-03-19T08:58:01.463Z,16.43
2023-03-19T08:59:01.488Z,16.46
2023-03-19T09:00:01.518Z,16.46
2023-03-19T09:01:01.542Z,16.35
2023-03-19T09:02:01.755Z,16.34
2023-03-19T09:03:01.606Z,16.43
2023-03-19T09:04:01.624Z,16.42
2023-03-19T09:05:01.664Z,16.39
2023-03-19T09:06:01.681Z,16.38
2023-03-19T09:07:01.701Z,16.39
2023-03-19T09:08:01.747Z,16.15
2023-03-19T09:09:01.768Z,16.27
2023-03-19T09:10:01.782Z,16.27
2023-03-19T09:11:01.859Z,16.38
2023-03-19T09:12:01.836Z,16.46
2023-03-19T09:13:01.856Z,16.49
2023-03-19T09:14:01.894Z,16.58
2023-03-19T09:15:01.910Z,16.68
2023-03-19T09:16:02.060Z,16.67
2023-03-19T09:17:01.957Z,16.79
2023-03-19T09:18:01.989Z,16.85
2023-03-19T09:19:02.017Z,16.88
2023-03-19T09:20:02.063Z,17.00
2023-03-19T09:21:02.069Z,17.06
2023-03-19T09:22:02.095Z,16.97
2023-03-19T09:23:02.146Z,17.04
2023-03-19T09:24:02.173Z,17.00
2023-03-19T09:25:02.178Z,17.00
2023-03-19T09:26:02.213Z,17.04
2023-03-19T09:27:02.229Z,17.11
2023-03-19T09:28:02.264Z,17.12
2023-03-19T09:29:02.282Z,17.16
2023-03-19T09:30:02.314Z,17.18
2023-03-19T09:31:02.360Z,17.04
2023-03-19T09:32:02.548Z,17.14
2023-03-19T09:33:02.418Z,17.15
2023-03-19T09:34:02.421Z,17.12
2023-03-19T09:35:02.446Z,17.21
2023-03-19T09:36:02.553Z,17.16
2023-03-19T09:37:02.507Z,17.11
2023-03-19T09:38:02.528Z,17.11
2023-03-19T09:39:02.558Z,17.11
2023-03-19T09:40:02.585Z,17.22
2023-03-19T09:41:02.610Z,17.25
2023-03-19T09:42:02.640Z,17.22
2023-03-19T09:43:02.666Z,17.33
2023-03-19T09:44:02.698Z,17.16
2023-03-19T09:45:02.743Z,17.12
2023-03-19T09:46:02.746Z,17.12
2023-03-19T09:47:02.806Z,17.23
2023-03-19T09:48:02.809Z,17.31
2023-03-19T09:49:02.829Z,17.40
2023-03-19T09:50:02.850Z,17.49
2023-03-19T09:51:02.914Z,17.48
2023-03-19T09:52:02.950Z,17.59
2023-03-19T09:53:02.944Z,17.52
2023-03-19T09:54:03.139Z,17.56
2023-03-19T09:55:02.992Z,17.55
2023-03-19T09:56:03.016Z,17.46
2023-03-19T09:57:03.131Z,17.48
2023-03-19T09:58:03.075Z,17.26
2023-03-19T09:59:03.123Z,17.41
2023-03-19T10:00:03.156Z,17.36
2023-03-19T10:01:03.184Z,17.36
2023-03-19T10:02:03.235Z,17.26
2023-03-19T10:03:03.986Z,17.28
2023-03-19T10:04:03.289Z,17.28
2023-03-19T10:05:03.276Z,17.21
2023-03-19T10:06:03.289Z,17.15
2023-03-19T10:07:03.328Z,17.22
2023-03-19T10:08:03.347Z,17.25
2023-03-19T10:09:03.405Z,17.28
2023-03-19T10:10:03.406Z,17.25
2023-03-19T10:11:03.426Z,17.28
2023-03-19T10:12:03.459Z,17.36
2023-03-19T10:13:03.484Z,17.30
2023-03-19T10:14:03.505Z,17.23
2023-03-19T10:15:03.601Z,17.26
2023-03-19T10:16:03.644Z,17.36
2023-03-19T10:17:03.591Z,17.30
2023-03-19T10:18:03.616Z,17.25
2023-03-19T10:19:03.644Z,17.25
2023-03-19T10:20:03.675Z,17.22
2023-03-19T10:21:03.727Z,17.14
2023-03-19T10:22:03.775Z,17.16
2023-03-19T10:23:03.754Z,17.07
2023-03-19T10:24:03.780Z,16.97
2023-03-19T10:25:03.804Z,17.06
2023-03-19T10:26:03.844Z,16.94
2023-03-19T10:27:03.873Z,16.88
2023-03-19T10:28:03.928Z,16.78
2023-03-19T10:29:03.922Z,16.68
2023-03-19T10:30:03.947Z,16.61
2023-03-19T10:31:03.984Z,16.68
2023-03-19T10:32:04.009Z,16.60
2023-03-19T10:33:04.118Z,16.61
2023-03-19T10:34:04.062Z,16.58
2023-03-19T10:35:04.087Z,16.50
2023-03-19T10:36:04.186Z,16.57
2023-03-19T10:37:04.217Z,16.49
2023-03-19T10:38:04.176Z,16.48
2023-03-19T10:39:04.358Z,16.50
2023-03-19T10:40:04.216Z,16.46
2023-03-19T10:41:04.240Z,16.48
2023-03-19T10:42:04.268Z,16.53
2023-03-19T10:43:04.294Z,16.60
2023-03-19T10:44:04.346Z,16.63
2023-03-19T10:45:04.347Z,16.78
2023-03-19T10:46:04.438Z,16.86
2023-03-19T10:47:04.403Z,16.91
2023-03-19T10:48:04.438Z,16.88
2023-03-19T10:49:04.454Z,17.00
2023-03-19T10:50:04.484Z,17.06
2023-03-19T10:51:04.622Z,17.12
2023-03-19T10:52:04.728Z,17.15
2023-03-19T10:53:04.564Z,17.23
2023-03-19T10:54:04.594Z,17.51
2023-03-19T10:55:04.810Z,17.49
2023-03-19T10:56:04.650Z,17.64
2023-03-19T10:57:04.676Z,17.68
2023-03-19T10:58:04.730Z,17.71
2023-03-19T10:59:04.728Z,17.63
2023-03-19T11:00:04.758Z,17.63
2023-03-19T11:01:04.844Z,17.62
2023-03-19T11:02:04.821Z,17.59
2023-03-19T11:03:04.850Z,17.58
2023-03-19T11:04:05.024Z,17.62
2023-03-19T11:05:04.904Z,17.55
2023-03-19T11:06:04.918Z,17.52
2023-03-19T11:07:04.949Z,17.66
2023-03-19T11:08:04.996Z,17.70
2023-03-19T11:09:05.016Z,17.66
2023-03-19T11:10:05.036Z,17.71
2023-03-19T11:11:05.054Z,17.75
2023-03-19T11:12:05.085Z,17.90
2023-03-19T11:13:05.237Z,17.87
2023-03-19T11:14:05.143Z,17.96
2023-03-19T11:15:05.172Z,17.99
2023-03-19T11:16:05.193Z,17.95
2023-03-19T11:17:05.275Z,17.96
2023-03-19T11:18:05.253Z,17.96
2023-03-19T11:19:05.289Z,17.97
2023-03-19T11:20:05.306Z,17.90
2023-03-19T11:21:05.343Z,17.92
2023-03-19T11:22:05.361Z,17.77
2023-03-19T11:23:05.512Z,17.63
2023-03-19T11:24:05.424Z,17.58
2023-03-19T11:25:05.464Z,17.59
2023-03-19T11:26:05.475Z,17.59
2023-03-19T11:27:05.576Z,17.71
2023-03-19T11:28:05.556Z,17.59
2023-03-19T11:29:05.575Z,17.71
2023-03-19T11:30:05.598Z,17.77
2023-03-19T11:31:05.611Z,17.77
2023-03-19T11:32:20.491Z,17.78
2023-03-19T11:33:05.720Z,17.86
2023-03-19T11:34:05.692Z,17.89
2023-03-19T11:35:05.738Z,17.97
2023-03-19T11:36:05.784Z,17.90
2023-03-19T11:37:05.780Z,17.81
2023-03-19T11:38:06.063Z,17.74
2023-03-19T11:39:05.838Z,17.66
2023-03-19T11:40:05.863Z,17.71
2023-03-19T11:41:05.898Z,17.71
2023-03-19T11:42:05.934Z,17.72
2023-03-19T11:43:05.945Z,17.79
2023-03-19T11:44:05.978Z,17.78
2023-03-19T11:45:05.999Z,17.97
2023-03-19T11:46:06.077Z,18.05
2023-03-19T11:47:14.843Z,18.03
2023-03-19T11:48:06.109Z,18.20
2023-03-19T11:49:06.127Z,18.21
2023-03-19T11:50:06.146Z,18.25
2023-03-19T11:51:06.171Z,18.39
2023-03-19T11:52:06.200Z,18.47
2023-03-19T11:53:06.233Z,18.57
2023-03-19T11:54:06.262Z,18.52
2023-03-19T11:55:06.297Z,18.58
2023-03-19T11:56:06.330Z,18.70
2023-03-19T11:57:06.337Z,18.67
2023-03-19T11:58:06.367Z,18.58
2023-03-19T11:59:06.403Z,18.50
2023-03-19T12:00:06.425Z,18.48
2023-03-19T12:01:06.454Z,18.55
2023-03-19T12:02:06.516Z,18.54
2023-03-19T12:03:06.522Z,18.63
2023-03-19T12:04:06.538Z,18.66
2023-03-19T12:05:06.577Z,18.72
2023-03-19T12:06:07.431Z,18.72
2023-03-19T12:07:06.633Z,18.75
2023-03-19T12:08:06.661Z,18.75
2023-03-19T12:09:06.680Z,18.87
2023-03-19T12:10:06.706Z,18.81
2023-03-19T12:11:06.740Z,18.85
2023-03-19T12:12:06.767Z,18.88
2023-03-19T12:13:06.789Z,18.99
2023-03-19T12:14:06.825Z,18.92
2023-03-19T12:15:06.858Z,18.99
2023-03-19T12:16:06.903Z,18.88
2023-03-19T12:17:06.906Z,18.55
2023-03-19T12:18:06.935Z,18.55
2023-03-19T12:19:06.963Z,18.55
2023-03-19T12:20:06.995Z,18.62
2023-03-19T12:21:07.025Z,18.63
2023-03-19T12:22:07.062Z,18.67
2023-03-19T12:23:07.089Z,18.67
2023-03-19T12:24:07.106Z,18.84
2023-03-19T12:25:07.134Z,18.72
2023-03-19T12:26:07.168Z,18.82
2023-03-19T12:27:07.191Z,18.69
2023-03-19T12:28:07.220Z,18.75
2023-03-19T12:29:07.245Z,18.70
2023-03-19T12:30:07.273Z,18.63
2023-03-19T12:31:07.350Z,18.55
2023-03-19T12:32:07.340Z,18.51
2023-03-19T12:33:07.435Z,18.55
2023-03-19T12:34:07.386Z,18.54
2023-03-19T12:35:07.413Z,18.55
2023-03-19T12:36:07.493Z,18.55
2023-03-19T12:37:07.472Z,18.45
2023-03-19T12:38:07.495Z,18.51
2023-03-19T12:39:07.528Z,18.50
2023-03-19T12:40:07.567Z,18.57
2023-03-19T12:41:07.580Z,18.55
2023-03-19T12:42:07.614Z,18.45
2023-03-19T12:43:07.639Z,18.45
2023-03-19T12:44:07.671Z,18.35
2023-03-19T12:45:07.691Z,18.33
2023-03-19T12:46:07.776Z,18.30
2023-03-19T12:47:07.761Z,18.37
2023-03-19T12:48:07.784Z,18.45
2023-03-19T12:49:07.822Z,18.58
2023-03-19T12:50:07.835Z,18.67
2023-03-19T12:51:07.872Z,18.66
2023-03-19T12:52:07.894Z,18.57
2023-03-19T12:53:07.933Z,18.63
2023-03-19T12:54:07.975Z,18.69
2023-03-19T12:55:07.977Z,18.90
2023-03-19T12:56:08.006Z,18.88
2023-03-19T12:57:08.033Z,18.76
2023-03-19T12:58:08.062Z,18.58
2023-03-19T12:59:08.099Z,18.44
2023-03-19T13:00:08.139Z,18.50
2023-03-19T13:01:08.146Z,18.42